createdAt,value
2023-01-29T00:00:12.688Z,10.20
2023-01-29T00:03:00.381Z,15.10
2023-01-29T00:05:28.752Z,13.70
2023-01-29T00:07:57.411Z,10.70
2023-01-29T00:10:25.766Z,9.30
2023-01-29T00:12:58.368Z,9.80
2023-01-29T00:15:26.130Z,10.70
2023-01-29T00:17:53.833Z,11.20
2023-01-29T00:20:21.579Z,10.80
2023-01-29T00:22:49.551Z,11.20
2023-01-29T00:25:17.357Z,10.10
2023-01-29T00:27:45.181Z,11.50
2023-01-29T00:30:13.815Z,10.60
2023-01-29T00:32:42.138Z,9.40
2023-01-29T00:35:10.369Z,8.70
2023-01-29T00:37:38.506Z,7.90
2023-01-29T00:40:07.451Z,6.50
2023-01-29T00:42:54.185Z,6.40
2023-01-29T00:45:22.042Z,10.80
2023-01-29T00:47:49.677Z,9.40
2023-01-29T00:50:17.924Z,7.60
2023-01-29T00:52:45.875Z,10.10
2023-01-29T00:55:13.501Z,6.70
2023-01-29T00:57:43.941Z,9.00
2023-01-29T01:00:17.126Z,7.30
2023-01-29T01:03:04.150Z,5.90
2023-01-29T01:05:32.399Z,3.70
2023-01-29T01:08:00.196Z,7.50
2023-01-29T01:10:33.080Z,5.70
2023-01-29T01:13:07.365Z,7.40
2023-01-29T01:15:40.142Z,5.90
2023-01-29T01:18:07.920Z,5.30
2023-01-29T01:20:36.614Z,4.80
2023-01-29T01:23:04.529Z,6.50
2023-01-29T01:25:32.734Z,6.70
2023-01-29T01:28:03.121Z,7.90
2023-01-29T01:30:30.931Z,5.40
2023-01-29T01:32:58.671Z,7.80
2023-01-29T01:35:26.450Z,10.60
2023-01-29T01:37:54.355Z,10.00
2023-01-29T01:40:25.248Z,10.70
2023-01-29T01:43:00.439Z,9.70
2023-01-29T01:45:36.564Z,10.60
2023-01-29T01:48:15.321Z,6.40
2023-01-29T01:50:52.754Z,7.70
2023-01-29T01:53:29.158Z,7.30
2023-01-29T01:56:03.491Z,12.30
2023-01-29T01:58:38.185Z,10.00
2023-01-29T02:01:12.804Z,12.00
2023-01-29T02:04:15.321Z,8.40
2023-01-29T02:07:03.121Z,6.70
2023-01-29T02:09:42.307Z,8.10
2023-01-29T02:12:14.398Z,8.10
2023-01-29T02:14:44.728Z,9.90
2023-01-29T02:17:16.693Z,8.00
2023-01-29T02:20:06.687Z,7.70
2023-01-29T02:23:17.517Z,7.40
2023-01-29T02:26:26.570Z,9.00
2023-01-29T02:29:27.175Z,9.90
2023-01-29T02:32:25.822Z,7.00
2023-01-29T02:35:28.653Z,5.70
2023-01-29T02:38:25.098Z,7.50
2023-01-29T02:41:00.363Z,8.50
2023-01-29T02:43:50.302Z,7.40
2023-01-29T02:46:58.617Z,10.30
2023-01-29T02:49:49.016Z,13.40
2023-01-29T02:52:23.203Z,13.30
2023-01-29T02:54:56.486Z,12.70
2023-01-29T02:57:29.606Z,9.70
2023-01-29T03:00:07.416Z,8.70
2023-01-29T03:02:53.207Z,10.90
2023-01-29T03:05:44.903Z,11.60
2023-01-29T03:08:23.045Z,12.60
2023-01-29T03:10:58.698Z,10.80
2023-01-29T03:13:43.907Z,12.90
2023-01-29T03:16:31.541Z,8.60
2023-01-29T03:19:11.553Z,9.30
2023-01-29T03:21:53.715Z,8.40
2023-01-29T03:24:54.123Z,9.50
2023-01-29T03:27:49.075Z,9.30
2023-01-29T03:30:38.000Z,8.40
2023-01-29T03:33:11.211Z,8.80
2023-01-29T03:35:53.724Z,7.20
2023-01-29T03:38:21.614Z,9.60
2023-01-29T03:40:54.941Z,8.50
2023-01-29T03:43:45.670Z,13.50
2023-01-29T03:46:29.133Z,14.30
2023-01-29T03:49:12.198Z,11.10
2023-01-29T03:52:06.265Z,10.60
2023-01-29T03:55:01.599Z,11.10
2023-01-29T03:58:01.349Z,10.70
2023-01-29T04:00:40.161Z,10.30
2023-01-29T04:03:21.407Z,12.10
2023-01-29T04:06:09.831Z,12.00
2023-01-29T04:08:51.185Z,10.30
2023-01-29T04:11:23.395Z,8.70
2023-01-29T04:13:52.746Z,10.70
2023-01-29T04:16:35.833Z,9.90
2023-01-29T04:19:06.652Z,10.00
2023-01-29T04:21:37.674Z,9.70
2023-01-29T04:24:08.225Z,11.40
2023-01-29T04:27:15.512Z,8.70
2023-01-29T04:30:41.891Z,10.30
2023-01-29T04:33:40.199Z,7.80
2023-01-29T04:36:21.641Z,6.60
2023-01-29T04:39:25.807Z,13.50
2023-01-29T04:42:03.217Z,16.20
2023-01-29T04:45:06.758Z,12.10
2023-01-29T04:48:00.723Z,10.50
2023-01-29T04:50:41.984Z,11.20
2023-01-29T04:53:44.387Z,9.80
2023-01-29T04:56:39.119Z,13.00
2023-01-29T04:59:17.697Z,13.00
2023-01-29T05:01:46.321Z,8.80
2023-01-29T05:04:19.756Z,11.50
2023-01-29T05:06:48.864Z,10.50
2023-01-29T05:09:17.917Z,13.40
2023-01-29T05:11:49.213Z,12.10
2023-01-29T05:14:19.845Z,10.40
2023-01-29T05:16:53.718Z,12.50
2023-01-29T05:19:21.407Z,14.80
2023-01-29T05:21:50.408Z,17.80
2023-01-29T05:24:27.316Z,15.70
2023-01-29T05:27:14.019Z,16.40
2023-01-29T05:29:46.970Z,13.50
2023-01-29T05:32:16.023Z,15.70
2023-01-29T05:34:43.757Z,11.90
2023-01-29T05:37:11.523Z,14.20
2023-01-29T05:39:39.265Z,16.90
2023-01-29T05:42:07.592Z,16.30
2023-01-29T05:44:35.316Z,16.00
2023-01-29T05:47:03.031Z,14.90
2023-01-29T05:49:30.780Z,12.90
2023-01-29T05:51:58.490Z,11.50
2023-01-29T05:54:26.221Z,15.70
2023-01-29T05:56:54.443Z,17.30
2023-01-29T05:59:22.275Z,17.90
2023-01-29T06:01:50.039Z,18.50
2023-01-29T06:04:17.731Z,19.10
2023-01-29T06:06:45.476Z,20.20
2023-01-29T06:09:13.265Z,21.90
2023-01-29T06:11:40.955Z,18.70
2023-01-29T06:14:08.740Z,20.00
2023-01-29T06:16:36.811Z,17.40
2023-01-29T06:19:04.593Z,16.60
2023-01-29T06:21:32.587Z,20.40
2023-01-29T06:24:00.439Z,17.80
2023-01-29T06:26:28.095Z,15.80
2023-01-29T06:28:55.904Z,18.70
2023-01-29T06:31:37.322Z,25.00
2023-01-29T06:34:08.177Z,26.20
2023-01-29T06:36:38.345Z,20.90
2023-01-29T06:39:05.998Z,18.50
2023-01-29T06:41:34.822Z,17.10
2023-01-29T06:44:02.604Z,18.30
2023-01-29T06:46:30.378Z,17.60
2023-01-29T06:49:00.615Z,20.30
2023-01-29T06:51:28.427Z,19.90
2023-01-29T06:53:56.572Z,21.80
2023-01-29T06:56:25.271Z,20.10
2023-01-29T06:58:53.045Z,12.80
2023-01-29T07:01:34.682Z,16.90
2023-01-29T07:04:03.814Z,21.50
2023-01-29T07:06:32.686Z,20.50
2023-01-29T07:09:00.459Z,17.20
2023-01-29T07:11:28.165Z,18.60
2023-01-29T07:13:56.179Z,18.70
2023-01-29T07:16:25.010Z,17.10
2023-01-29T07:18:52.780Z,16.50
2023-01-29T07:21:20.600Z,19.50
2023-01-29T07:23:48.326Z,20.20
2023-01-29T07:26:16.969Z,16.20
2023-01-29T07:28:44.626Z,15.50
2023-01-29T07:31:14.844Z,17.80
2023-01-29T07:33:46.462Z,15.40
2023-01-29T07:36:14.890Z,14.10
2023-01-29T07:38:42.717Z,25.20
2023-01-29T07:41:11.794Z,24.60
2023-01-29T07:43:39.564Z,21.70
2023-01-29T07:46:07.695Z,27.70
2023-01-29T07:48:36.066Z,21.30
2023-01-29T07:51:04.088Z,18.20
2023-01-29T07:53:31.830Z,16.10
2023-01-29T07:55:59.544Z,17.60
2023-01-29T07:58:27.256Z,18.40
2023-01-29T08:00:55.288Z,14.70
2023-01-29T08:03:23.053Z,13.70
2023-01-29T08:05:50.782Z,14.20
2023-01-29T08:08:19.427Z,11.80
2023-01-29T08:10:47.205Z,21.40
2023-01-29T08:13:15.088Z,23.50
2023-01-29T08:15:45.483Z,17.60
2023-01-29T08:18:14.953Z,24.60
2023-01-29T08:20:42.677Z,20.90
2023-01-29T08:23:16.625Z,18.80
2023-01-29T08:25:44.762Z,14.70
2023-01-29T08:28:12.697Z,16.70
2023-01-29T08:30:44.142Z,16.20
2023-01-29T08:33:11.981Z,13.70
2023-01-29T08:35:41.154Z,11.70
2023-01-29T08:38:09.460Z,10.50
2023-01-29T08:40:37.720Z,9.70
2023-01-29T08:43:09.168Z,9.90
2023-01-29T08:45:41.185Z,15.00
2023-01-29T08:48:09.768Z,15.00
2023-01-29T08:50:38.268Z,16.30
2023-01-29T08:53:08.787Z,15.70
2023-01-29T08:55:39.407Z,19.90
2023-01-29T08:58:10.613Z,14.70
2023-01-29T09:00:38.940Z,15.00
2023-01-29T09:03:08.140Z,13.20
2023-01-29T09:05:39.086Z,9.60
2023-01-29T09:08:09.973Z,6.00
2023-01-29T09:10:40.000Z,8.50
2023-01-29T09:13:07.686Z,9.40
2023-01-29T09:15:35.351Z,4.50
2023-01-29T09:18:05.039Z,11.70
2023-01-29T09:20:33.373Z,17.00
2023-01-29T09:23:07.229Z,14.50
2023-01-29T09:25:35.930Z,11.30
2023-01-29T09:28:04.225Z,13.80
2023-01-29T09:30:33.454Z,13.20
2023-01-29T09:33:07.171Z,13.80
2023-01-29T09:35:34.983Z,12.20
2023-01-29T09:38:02.746Z,10.40
2023-01-29T09:41:02.439Z,12.70
2023-01-29T09:44:04.871Z,7.60
2023-01-29T09:46:43.901Z,8.30
2023-01-29T09:49:41.755Z,6.70
2023-01-29T09:52:25.068Z,6.10
2023-01-29T09:55:35.410Z,6.60
2023-01-29T09:58:31.679Z,16.80
2023-01-29T10:01:33.028Z,15.30
2023-01-29T10:04:28.581Z,12.20
2023-01-29T10:07:16.261Z,13.00
2023-01-29T10:10:26.903Z,11.00
2023-01-29T10:13:06.681Z,12.20
2023-01-29T10:16:18.813Z,14.20
2023-01-29T10:19:17.143Z,12.30
2023-01-29T10:21:54.060Z,8.90
2023-01-29T10:24:50.433Z,7.80
2023-01-29T10:27:19.310Z,5.80
2023-01-29T10:29:53.921Z,6.20
2023-01-29T10:32:26.189Z,5.30
2023-01-29T10:35:05.009Z,7.60
2023-01-29T10:37:43.834Z,9.40
2023-01-29T10:40:23.237Z,8.40
2023-01-29T10:43:32.526Z,10.10
2023-01-29T10:46:46.295Z,14.40
2023-01-29T10:50:05.701Z,12.80
2023-01-29T10:53:18.145Z,11.30
2023-01-29T10:56:05.832Z,13.40
2023-01-29T10:58:52.137Z,15.70
2023-01-29T11:01:19.907Z,14.80
2023-01-29T11:04:00.244Z,10.80
2023-01-29T11:06:35.973Z,8.80
2023-01-29T11:09:12.983Z,9.80
2023-01-29T11:11:50.793Z,11.40
2023-01-29T11:14:31.651Z,8.30
2023-01-29T11:16:59.803Z,8.60
2023-01-29T11:19:38.509Z,7.20
2023-01-29T11:22:19.843Z,11.60
2023-01-29T11:25:08.576Z,10.50
2023-01-29T11:27:45.694Z,16.00
2023-01-29T11:30:27.149Z,20.10
2023-01-29T11:33:20.300Z,25.40
2023-01-29T11:35:48.429Z,16.10
2023-01-29T11:38:16.136Z,11.60
2023-01-29T11:40:45.196Z,17.90
2023-01-29T11:43:31.397Z,17.60
2023-01-29T11:46:12.994Z,15.30
2023-01-29T11:48:47.855Z,10.30
2023-01-29T11:51:27.942Z,9.00
2023-01-29T11:54:03.136Z,10.20
2023-01-29T11:56:44.307Z,13.40
2023-01-29T11:59:42.757Z,8.20
2023-01-29T12:02:26.723Z,14.80
2023-01-29T12:04:59.878Z,11.90
2023-01-29T12:07:28.866Z,11.90
2023-01-29T12:10:00.140Z,8.20
2023-01-29T12:12:37.936Z,16.20
2023-01-29T12:15:21.575Z,16.30
2023-01-29T12:17:59.005Z,17.70
2023-01-29T12:20:52.962Z,17.70
2023-01-29T12:23:38.587Z,18.10
2023-01-29T12:26:15.828Z,13.20
2023-01-29T12:29:14.448Z,13.00
2023-01-29T12:32:24.945Z,10.50
2023-01-29T12:35:05.170Z,12.10
2023-01-29T12:37:49.642Z,12.50
2023-01-29T12:40:20.300Z,14.80
2023-01-29T12:43:02.553Z,13.10
2023-01-29T12:45:32.811Z,9.20
2023-01-29T12:48:14.291Z,9.60
2023-01-29T12:50:44.389Z,10.50
2023-01-29T12:53:37.398Z,12.60
2023-01-29T12:56:58.154Z,10.20
2023-01-29T12:59:42.741Z,11.50
2023-01-29T13:02:37.818Z,12.10
2023-01-29T13:05:34.547Z,20.00
2023-01-29T13:08:31.579Z,19.70
2023-01-29T13:11:10.580Z,23.30
2023-01-29T13:13:56.656Z,17.40
2023-01-29T13:16:40.969Z,17.10
2023-01-29T13:19:27.462Z,16.40
2023-01-29T13:22:01.366Z,17.60
2023-01-29T13:24:39.922Z,19.20
2023-01-29T13:27:20.130Z,20.30
2023-01-29T13:29:48.805Z,19.00
2023-01-29T13:32:27.236Z,21.60
2023-01-29T13:35:13.009Z,20.60
2023-01-29T13:37:50.209Z,18.20
2023-01-29T13:40:27.738Z,23.80
2023-01-29T13:43:00.186Z,21.30
2023-01-29T13:45:45.263Z,14.80
2023-01-29T13:48:38.086Z,14.30
2023-01-29T13:51:16.989Z,16.20
2023-01-29T13:53:56.414Z,17.20
2023-01-29T13:56:33.364Z,20.80
2023-01-29T13:59:06.166Z,13.70
2023-01-29T14:01:49.423Z,19.10
2023-01-29T14:04:24.039Z,23.60
2023-01-29T14:06:57.575Z,29.00
2023-01-29T14:09:38.743Z,29.60
2023-01-29T14:12:21.426Z,21.60
2023-01-29T14:14:49.107Z,19.90
2023-01-29T14:17:19.974Z,20.40
2023-01-29T14:19:52.041Z,20.90
2023-01-29T14:22:27.626Z,27.90
2023-01-29T14:25:01.724Z,26.90
2023-01-29T14:27:30.310Z,18.20
2023-01-29T14:30:09.825Z,14.90
2023-01-29T14:32:40.552Z,15.70
2023-01-29T14:35:25.317Z,17.30
2023-01-29T14:38:00.173Z,23.80
2023-01-29T14:40:30.944Z,32.60
2023-01-29T14:43:02.882Z,19.40
2023-01-29T14:45:41.900Z,19.60
2023-01-29T14:48:09.530Z,30.30
2023-01-29T14:50:37.860Z,38.90
2023-01-29T14:53:33.303Z,39.40
2023-01-29T14:56:14.554Z,32.10
2023-01-29T14:58:50.422Z,28.80
2023-01-29T15:01:25.709Z,35.20
2023-01-29T15:04:25.944Z,44.60
2023-01-29T15:07:06.955Z,25.50
2023-01-29T15:10:01.383Z,24.80
2023-01-29T15:13:00.493Z,25.30
2023-01-29T15:15:34.073Z,18.50
2023-01-29T15:18:31.488Z,22.90
2023-01-29T15:21:12.688Z,37.50
2023-01-29T15:23:41.658Z,25.50
2023-01-29T15:26:20.931Z,16.00
2023-01-29T15:29:05.120Z,17.30
2023-01-29T15:31:35.542Z,13.90
2023-01-29T15:34:07.691Z,16.90
2023-01-29T15:36:37.330Z,29.70
2023-01-29T15:39:24.468Z,27.30
2023-01-29T15:42:12.953Z,26.00
2023-01-29T15:44:46.063Z,24.00
2023-01-29T15:47:16.481Z,20.10
2023-01-29T15:49:47.013Z,17.80
2023-01-29T15:52:28.646Z,21.00
2023-01-29T15:55:04.758Z,19.50
2023-01-29T15:57:45.177Z,14.00
2023-01-29T16:00:27.645Z,17.10
2023-01-29T16:03:01.499Z,20.90
2023-01-29T16:05:32.880Z,20.40
2023-01-29T16:08:01.594Z,12.60
2023-01-29T16:10:32.694Z,10.90
2023-01-29T16:13:01.259Z,10.90
2023-01-29T16:15:38.475Z,17.30
2023-01-29T16:18:28.595Z,18.40
2023-01-29T16:21:00.455Z,27.50
2023-01-29T16:23:42.070Z,33.50
2023-01-29T16:26:19.439Z,30.20
2023-01-29T16:28:48.466Z,29.60
2023-01-29T16:31:29.402Z,19.20
2023-01-29T16:33:59.619Z,22.00
2023-01-29T16:36:28.010Z,18.70
2023-01-29T16:39:01.185Z,14.80
2023-01-29T16:41:36.179Z,28.50
2023-01-29T16:44:32.169Z,17.50
2023-01-29T16:47:12.948Z,20.80
2023-01-29T16:49:40.636Z,13.70
2023-01-29T16:52:23.270Z,16.10
2023-01-29T16:54:51.372Z,19.70
2023-01-29T16:57:30.434Z,21.30
2023-01-29T17:00:03.294Z,28.70
2023-01-29T17:02:38.521Z,23.50
2023-01-29T17:05:21.110Z,25.00
2023-01-29T17:07:49.917Z,27.60
2023-01-29T17:10:22.146Z,23.10
2023-01-29T17:12:57.918Z,23.40
2023-01-29T17:15:49.589Z,20.50
2023-01-29T17:18:23.119Z,17.40
2023-01-29T17:20:54.828Z,21.40
2023-01-29T17:23:23.241Z,14.00
2023-01-29T17:25:51.927Z,18.10
2023-01-29T17:28:19.754Z,29.40
2023-01-29T17:31:00.168Z,30.50
2023-01-29T17:33:34.818Z,31.20
2023-01-29T17:36:02.603Z,31.00
2023-01-29T17:38:30.395Z,23.20
2023-01-29T17:41:39.909Z,28.10
2023-01-29T17:44:07.649Z,23.70
2023-01-29T17:46:35.435Z,26.80
2023-01-29T17:49:04.562Z,23.40
2023-01-29T17:51:32.259Z,29.30
2023-01-29T17:53:59.920Z,27.40
2023-01-29T17:56:27.781Z,20.40
2023-01-29T17:58:55.798Z,19.20
2023-01-29T18:01:23.822Z,24.50
2023-01-29T18:03:52.076Z,29.90
2023-01-29T18:06:30.002Z,25.10
2023-01-29T18:08:58.578Z,22.20
2023-01-29T18:11:26.755Z,24.90
2023-01-29T18:13:57.269Z,24.60
2023-01-29T18:16:26.367Z,29.90
2023-01-29T18:18:54.905Z,27.50
2023-01-29T18:21:22.697Z,24.00
2023-01-29T18:23:51.257Z,17.40
2023-01-29T18:26:19.394Z,19.90
2023-01-29T18:28:49.733Z,23.10
2023-01-29T18:31:17.498Z,20.60
2023-01-29T18:33:45.339Z,28.10
2023-01-29T18:36:13.636Z,26.80
2023-01-29T18:38:43.725Z,23.20
2023-01-29T18:41:11.587Z,24.70
2023-01-29T18:43:41.909Z,25.70
2023-01-29T18:46:10.293Z,25.00
2023-01-29T18:48:38.018Z,22.00
2023-01-29T18:51:06.397Z,23.30
2023-01-29T18:53:34.145Z,20.80
2023-01-29T18:56:05.651Z,22.60
2023-01-29T18:58:36.633Z,19.50
2023-01-29T19:01:11.581Z,17.50
2023-01-29T19:03:41.616Z,28.00
2023-01-29T19:06:12.185Z,32.60
2023-01-29T19:08:40.868Z,42.90
2023-01-29T19:11:09.027Z,37.60
2023-01-29T19:13:38.102Z,35.80
2023-01-29T19:16:09.061Z,27.40
2023-01-29T19:18:37.410Z,28.60
2023-01-29T19:21:12.299Z,26.60
2023-01-29T19:23:41.708Z,25.50
2023-01-29T19:26:10.536Z,29.10
2023-01-29T19:28:40.852Z,33.20
2023-01-29T19:31:11.459Z,24.10
2023-01-29T19:33:39.533Z,20.00
2023-01-29T19:36:07.884Z,30.70
2023-01-29T19:38:39.014Z,41.40
2023-01-29T19:41:07.616Z,36.10
2023-01-29T19:43:38.355Z,35.30
2023-01-29T19:46:07.583Z,32.80
2023-01-29T19:48:38.221Z,30.50
2023-01-29T19:51:10.073Z,29.30
2023-01-29T19:53:40.088Z,25.40
2023-01-29T19:56:11.901Z,27.00
2023-01-29T19:58:40.356Z,24.90
2023-01-29T20:01:15.717Z,20.50
2023-01-29T20:03:46.605Z,20.60
2023-01-29T20:06:18.799Z,36.90
2023-01-29T20:08:46.737Z,37.30
2023-01-29T20:11:18.229Z,35.90
2023-01-29T20:13:52.137Z,37.00
2023-01-29T20:16:21.310Z,37.30
2023-01-29T20:18:49.039Z,32.60
2023-01-29T20:21:20.700Z,35.80
2023-01-29T20:23:51.306Z,33.80
2023-01-29T20:26:20.182Z,27.30
2023-01-29T20:28:48.932Z,29.90
2023-01-29T20:31:17.100Z,22.80
2023-01-29T20:33:44.971Z,37.10
2023-01-29T20:36:14.758Z,35.90
2023-01-29T20:38:42.619Z,26.00
2023-01-29T20:41:16.764Z,35.50
2023-01-29T20:43:47.061Z,30.30
2023-01-29T20:46:15.173Z,31.50
2023-01-29T20:48:42.996Z,25.80
2023-01-29T20:51:15.618Z,31.00
2023-01-29T20:53:46.839Z,33.50
2023-01-29T20:56:16.411Z,29.40
2023-01-29T20:58:46.697Z,19.20
2023-01-29T21:01:20.758Z,22.50
2023-01-29T21:03:48.631Z,31.90
2023-01-29T21:06:16.395Z,39.20
2023-01-29T21:08:44.173Z,39.40
2023-01-29T21:11:14.432Z,36.40
2023-01-29T21:13:44.054Z,31.80
2023-01-29T21:16:12.063Z,35.50
2023-01-29T21:18:39.932Z,26.40
2023-01-29T21:21:07.685Z,32.50
2023-01-29T21:23:35.550Z,42.90
2023-01-29T21:26:05.616Z,30.60
2023-01-29T21:28:34.552Z,31.80
2023-01-29T21:31:10.902Z,31.60
2023-01-29T21:33:38.835Z,36.10
2023-01-29T21:36:07.959Z,44.60
2023-01-29T21:38:36.125Z,36.10
2023-01-29T21:41:08.865Z,39.10
2023-01-29T21:43:37.395Z,39.80
2023-01-29T21:46:14.173Z,37.60
2023-01-29T21:48:41.979Z,41.60
2023-01-29T21:51:09.838Z,45.60
2023-01-29T21:53:37.749Z,42.70
2023-01-29T21:56:06.308Z,35.50
2023-01-29T21:58:34.069Z,41.90
2023-01-29T22:01:28.036Z,49.90
2023-01-29T22:03:49.541Z,69.10
2023-01-29T22:06:19.645Z,59.10
2023-01-29T22:08:49.581Z,52.50
2023-01-29T22:11:17.997Z,43.80
2023-01-29T22:13:45.751Z,52.80
2023-01-29T22:16:13.466Z,38.30
2023-01-29T22:18:41.185Z,40.00
2023-01-29T22:21:08.959Z,43.00
2023-01-29T22:23:36.743Z,38.10
2023-01-29T22:26:06.913Z,37.50
2023-01-29T22:28:35.389Z,32.00
2023-01-29T22:31:06.591Z,41.40
2023-01-29T22:33:34.937Z,42.70
2023-01-29T22:36:03.666Z,43.60
2023-01-29T22:38:31.634Z,40.10
2023-01-29T22:41:00.945Z,35.80
2023-01-29T22:43:29.329Z,37.10
2023-01-29T22:45:57.193Z,26.80
2023-01-29T22:48:25.521Z,30.70
2023-01-29T22:51:19.579Z,22.50
2023-01-29T22:53:54.132Z,27.40
2023-01-29T22:56:25.804Z,28.20
2023-01-29T22:58:57.491Z,29.00
2023-01-29T23:01:29.431Z,39.50
2023-01-29T23:03:57.910Z,35.40
2023-01-29T23:06:25.704Z,32.70
2023-01-29T23:08:53.423Z,31.60
2023-01-29T23:11:23.587Z,35.10
2023-01-29T23:13:54.326Z,29.00
2023-01-29T23:16:27.962Z,30.80
2023-01-29T23:18:57.189Z,31.10
2023-01-29T23:21:26.180Z,27.30
2023-01-29T23:23:55.533Z,26.00
2023-01-29T23:26:42.387Z,32.60
2023-01-29T23:29:10.515Z,31.70
2023-01-29T23:31:39.332Z,29.40
2023-01-29T23:34:07.115Z,28.60
2023-01-29T23:36:34.999Z,24.80
2023-01-29T23:39:03.067Z,24.70
2023-01-29T23:41:30.770Z,22.60
2023-01-29T23:43:58.519Z,14.60
2023-01-29T23:46:26.277Z,17.30
2023-01-29T23:48:53.933Z,20.10
2023-01-29T23:51:21.577Z,18.20
2023-01-29T23:53:49.433Z,25.90
2023-01-29T23:56:17.518Z,35.50
2023-01-29T23:58:45.716Z,33.70
